sensor_id;sensor_type;location;lat;lon;timestamp;P1;durP1;ratioP1;P2;durP2;ratioP2
38693;SDS011;24447;43.460;25.744;2023-09-30T00:00:44;10.73;;;2.88;;
38693;SDS011;24447;43.460;25.744;2023-09-30T00:03:10;8.15;;;3.15;;
38693;SDS011;24447;43.460;25.744;2023-09-30T00:05:37;5.60;;;2.28;;
38693;SDS011;24447;43.460;25.744;2023-09-30T00:08:03;2.38;;;1.60;;
38693;SDS011;24447;43.460;25.744;2023-09-30T00:10:30;5.40;;;2.75;;
38693;SDS011;24447;43.460;25.744;2023-09-30T00:12:56;6.53;;;2.88;;
38693;SDS011;24447;43.460;25.744;2023-09-30T00:15:23;6.25;;;3.45;;
38693;SDS011;24447;43.460;25.744;2023-09-30T00:17:49;5.28;;;2.60;;
38693;SDS011;24447;43.460;25.744;2023-09-30T00:20:15;3.00;;;1.95;;
38693;SDS011;24447;43.460;25.744;2023-09-30T00:22:42;6.03;;;2.63;;
38693;SDS011;24447;43.460;25.744;2023-09-30T00:25:08;7.05;;;3.53;;
38693;SDS011;24447;43.460;25.744;2023-09-30T00:27:35;5.97;;;2.33;;
38693;SDS011;24447;43.460;25.744;2023-09-30T00:30:01;5.72;;;3.08;;
38693;SDS011;24447;43.460;25.744;2023-09-30T00:32:28;5.78;;;2.75;;
38693;SDS011;24447;43.460;25.744;2023-09-30T00:34:54;7.15;;;2.75;;
38693;SDS011;24447;43.460;25.744;2023-09-30T00:37:20;6.93;;;3.00;;
38693;SDS011;24447;43.460;25.744;2023-09-30T00:39:46;5.45;;;3.10;;
38693;SDS011;24447;43.460;25.744;2023-09-30T00:42:12;6.32;;;3.28;;
38693;SDS011;24447;43.460;25.744;2023-09-30T00:44:38;8.40;;;2.42;;
38693;SDS011;24447;43.460;25.744;2023-09-30T00:47:04;9.40;;;2.65;;
38693;SDS011;24447;43.460;25.744;2023-09-30T00:49:30;10.65;;;3.47;;
38693;SDS011;24447;43.460;25.744;2023-09-30T00:51:57;4.00;;;2.58;;
38693;SDS011;24447;43.460;25.744;2023-09-30T00:54:23;6.40;;;3.40;;
38693;SDS011;24447;43.460;25.744;2023-09-30T00:56:50;6.65;;;2.60;;
38693;SDS011;24447;43.460;25.744;2023-09-30T00:59:18;6.63;;;3.25;;
38693;SDS011;24447;43.460;25.744;2023-09-30T01:01:45;7.95;;;3.25;;
38693;SDS011;24447;43.460;25.744;2023-09-30T01:04:11;5.95;;;2.63;;
38693;SDS011;24447;43.460;25.744;2023-09-30T01:06:38;9.25;;;4.05;;
38693;SDS011;24447;43.460;25.744;2023-09-30T01:09:04;14.70;;;3.58;;
38693;SDS011;24447;43.460;25.744;2023-09-30T01:11:30;6.43;;;2.95;;
38693;SDS011;24447;43.460;25.744;2023-09-30T01:13:56;7.75;;;3.88;;
38693;SDS011;24447;43.460;25.744;2023-09-30T01:16:22;4.78;;;3.03;;
38693;SDS011;24447;43.460;25.744;2023-09-30T01:18:49;22.05;;;3.90;;
38693;SDS011;24447;43.460;25.744;2023-09-30T01:21:15;12.75;;;3.08;;
38693;SDS011;24447;43.460;25.744;2023-09-30T01:23:41;6.88;;;3.25;;
38693;SDS011;24447;43.460;25.744;2023-09-30T01:26:09;8.18;;;3.53;;
38693;SDS011;24447;43.460;25.744;2023-09-30T01:28:37;9.82;;;5.13;;
38693;SDS011;24447;43.460;25.744;2023-09-30T01:31:03;5.88;;;3.25;;
38693;SDS011;24447;43.460;25.744;2023-09-30T01:33:29;8.57;;;4.40;;
38693;SDS011;24447;43.460;25.744;2023-09-30T01:35:56;9.30;;;3.42;;
38693;SDS011;24447;43.460;25.744;2023-09-30T01:38:22;7.45;;;3.92;;
38693;SDS011;24447;43.460;25.744;2023-09-30T01:40:48;11.90;;;4.35;;
38693;SDS011;24447;43.460;25.744;2023-09-30T01:43:14;8.32;;;4.85;;
38693;SDS011;24447;43.460;25.744;2023-09-30T01:45:40;9.23;;;3.70;;
38693;SDS011;24447;43.460;25.744;2023-09-30T01:48:06;7.43;;;3.30;;
38693;SDS011;24447;43.460;25.744;2023-09-30T01:50:36;9.77;;;4.05;;
38693;SDS011;24447;43.460;25.744;2023-09-30T01:53:08;5.30;;;3.25;;
38693;SDS011;24447;43.460;25.744;2023-09-30T01:55:37;10.20;;;3.72;;
38693;SDS011;24447;43.460;25.744;2023-09-30T01:58:03;8.73;;;3.95;;
38693;SDS011;24447;43.460;25.744;2023-09-30T02:00:29;11.73;;;5.00;;
38693;SDS011;24447;43.460;25.744;2023-09-30T02:02:55;7.72;;;3.58;;
38693;SDS011;24447;43.460;25.744;2023-09-30T02:05:21;9.07;;;4.07;;
38693;SDS011;24447;43.460;25.744;2023-09-30T02:07:48;7.72;;;3.38;;
38693;SDS011;24447;43.460;25.744;2023-09-30T02:10:15;11.75;;;4.47;;
38693;SDS011;24447;43.460;25.744;2023-09-30T02:12:43;7.18;;;4.07;;
38693;SDS011;24447;43.460;25.744;2023-09-30T02:15:10;10.10;;;4.30;;
38693;SDS011;24447;43.460;25.744;2023-09-30T02:17:36;10.02;;;4.38;;
38693;SDS011;24447;43.460;25.744;2023-09-30T02:20:02;11.10;;;4.43;;
38693;SDS011;24447;43.460;25.744;2023-09-30T02:22:38;12.25;;;3.97;;
38693;SDS011;24447;43.460;25.744;2023-09-30T02:25:04;7.57;;;4.00;;
38693;SDS011;24447;43.460;25.744;2023-09-30T02:27:32;11.23;;;4.78;;
38693;SDS011;24447;43.460;25.744;2023-09-30T02:29:59;12.23;;;4.90;;
38693;SDS011;24447;43.460;25.744;2023-09-30T02:32:25;12.10;;;5.38;;
38693;SDS011;24447;43.460;25.744;2023-09-30T02:34:51;10.98;;;5.55;;
38693;SDS011;24447;43.460;25.744;2023-09-30T02:37:17;17.05;;;5.38;;
38693;SDS011;24447;43.460;25.744;2023-09-30T02:39:43;12.65;;;5.00;;
38693;SDS011;24447;43.460;25.744;2023-09-30T02:42:10;11.68;;;4.80;;
38693;SDS011;24447;43.460;25.744;2023-09-30T02:44:36;14.68;;;4.97;;
38693;SDS011;24447;43.460;25.744;2023-09-30T02:47:02;12.73;;;5.50;;
38693;SDS011;24447;43.460;25.744;2023-09-30T02:49:27;14.50;;;5.90;;
38693;SDS011;24447;43.460;25.744;2023-09-30T02:51:53;12.38;;;5.78;;
38693;SDS011;24447;43.460;25.744;2023-09-30T02:54:19;11.43;;;5.53;;
38693;SDS011;24447;43.460;25.744;2023-09-30T02:56:45;8.10;;;4.25;;
38693;SDS011;24447;43.460;25.744;2023-09-30T02:59:12;11.90;;;4.85;;
38693;SDS011;24447;43.460;25.744;2023-09-30T03:01:44;13.23;;;5.35;;
38693;SDS011;24447;43.460;25.744;2023-09-30T03:04:10;11.23;;;4.88;;
38693;SDS011;24447;43.460;25.744;2023-09-30T03:06:37;10.32;;;5.15;;
38693;SDS011;24447;43.460;25.744;2023-09-30T03:09:04;6.85;;;4.22;;
38693;SDS011;24447;43.460;25.744;2023-09-30T03:11:31;10.35;;;4.20;;
38693;SDS011;24447;43.460;25.744;2023-09-30T03:13:57;14.75;;;5.85;;
38693;SDS011;24447;43.460;25.744;2023-09-30T03:16:24;17.33;;;5.93;;
38693;SDS011;24447;43.460;25.744;2023-09-30T03:18:50;13.73;;;4.22;;
38693;SDS011;24447;43.460;25.744;2023-09-30T03:21:16;11.75;;;4.82;;
38693;SDS011;24447;43.460;25.744;2023-09-30T03:23:43;12.25;;;5.78;;
38693;SDS011;24447;43.460;25.744;2023-09-30T03:26:09;11.48;;;4.57;;
38693;SDS011;24447;43.460;25.744;2023-09-30T03:28:38;12.32;;;5.70;;
38693;SDS011;24447;43.460;25.744;2023-09-30T03:31:05;14.23;;;6.05;;
38693;SDS011;24447;43.460;25.744;2023-09-30T03:33:34;12.68;;;5.35;;
38693;SDS011;24447;43.460;25.744;2023-09-30T03:36:00;11.52;;;6.15;;
38693;SDS011;24447;43.460;25.744;2023-09-30T03:38:28;11.70;;;4.43;;
38693;SDS011;24447;43.460;25.744;2023-09-30T03:40:56;8.48;;;4.90;;
38693;SDS011;24447;43.460;25.744;2023-09-30T03:43:23;8.75;;;4.97;;
38693;SDS011;24447;43.460;25.744;2023-09-30T03:45:50;10.80;;;4.93;;
38693;SDS011;24447;43.460;25.744;2023-09-30T03:48:18;12.57;;;5.30;;
38693;SDS011;24447;43.460;25.744;2023-09-30T03:50:44;13.30;;;5.68;;
38693;SDS011;24447;43.460;25.744;2023-09-30T03:53:10;11.55;;;4.95;;
38693;SDS011;24447;43.460;25.744;2023-09-30T03:55:36;21.13;;;6.82;;
38693;SDS011;24447;43.460;25.744;2023-09-30T03:58:03;8.40;;;3.28;;
38693;SDS011;24447;43.460;25.744;2023-09-30T04:00:29;14.63;;;5.85;;
38693;SDS011;24447;43.460;25.744;2023-09-30T04:02:55;20.40;;;7.88;;
38693;SDS011;24447;43.460;25.744;2023-09-30T04:05:26;13.57;;;6.15;;
38693;SDS011;24447;43.460;25.744;2023-09-30T04:07:57;11.05;;;5.50;;
38693;SDS011;24447;43.460;25.744;2023-09-30T04:10:23;12.98;;;5.15;;
38693;SDS011;24447;43.460;25.744;2023-09-30T04:12:49;12.60;;;5.13;;
38693;SDS011;24447;43.460;25.744;2023-09-30T04:15:15;16.60;;;7.13;;
38693;SDS011;24447;43.460;25.744;2023-09-30T04:17:41;12.73;;;4.45;;
38693;SDS011;24447;43.460;25.744;2023-09-30T04:20:07;16.88;;;6.75;;
38693;SDS011;24447;43.460;25.744;2023-09-30T04:22:36;13.90;;;5.50;;
38693;SDS011;24447;43.460;25.744;2023-09-30T04:25:02;11.98;;;5.43;;
38693;SDS011;24447;43.460;25.744;2023-09-30T04:27:34;12.43;;;5.38;;
38693;SDS011;24447;43.460;25.744;2023-09-30T04:30:00;10.90;;;4.00;;
38693;SDS011;24447;43.460;25.744;2023-09-30T04:32:33;12.02;;;5.47;;
38693;SDS011;24447;43.460;25.744;2023-09-30T04:35:00;16.90;;;4.65;;
38693;SDS011;24447;43.460;25.744;2023-09-30T04:37:26;12.80;;;4.47;;
38693;SDS011;24447;43.460;25.744;2023-09-30T04:39:52;14.57;;;5.00;;
38693;SDS011;24447;43.460;25.744;2023-09-30T04:42:18;11.15;;;4.20;;
38693;SDS011;24447;43.460;25.744;2023-09-30T04:44:44;12.15;;;4.50;;
38693;SDS011;24447;43.460;25.744;2023-09-30T04:47:10;8.95;;;3.78;;
38693;SDS011;24447;43.460;25.744;2023-09-30T04:49:36;9.27;;;3.55;;
38693;SDS011;24447;43.460;25.744;2023-09-30T04:52:02;9.70;;;4.07;;
38693;SDS011;24447;43.460;25.744;2023-09-30T04:54:30;12.70;;;5.80;;
38693;SDS011;24447;43.460;25.744;2023-09-30T04:56:56;9.27;;;4.32;;
38693;SDS011;24447;43.460;25.744;2023-09-30T04:59:22;10.60;;;5.03;;
38693;SDS011;24447;43.460;25.744;2023-09-30T05:01:50;13.02;;;4.78;;
38693;SDS011;24447;43.460;25.744;2023-09-30T05:04:16;5.95;;;3.65;;
38693;SDS011;24447;43.460;25.744;2023-09-30T05:06:42;7.63;;;3.80;;
38693;SDS011;24447;43.460;25.744;2023-09-30T05:09:08;9.05;;;4.20;;
38693;SDS011;24447;43.460;25.744;2023-09-30T05:11:35;12.57;;;5.05;;
38693;SDS011;24447;43.460;25.744;2023-09-30T05:14:01;9.88;;;4.53;;
38693;SDS011;24447;43.460;25.744;2023-09-30T05:16:27;6.28;;;3.40;;
38693;SDS011;24447;43.460;25.744;2023-09-30T05:18:54;10.18;;;4.15;;
38693;SDS011;24447;43.460;25.744;2023-09-30T05:21:20;11.73;;;4.82;;
38693;SDS011;24447;43.460;25.744;2023-09-30T05:23:46;11.23;;;5.07;;
38693;SDS011;24447;43.460;25.744;2023-09-30T05:26:12;17.75;;;4.60;;
38693;SDS011;24447;43.460;25.744;2023-09-30T05:28:38;10.70;;;4.53;;
38693;SDS011;24447;43.460;25.744;2023-09-30T05:31:04;9.57;;;4.35;;
38693;SDS011;24447;43.460;25.744;2023-09-30T05:33:31;13.93;;;6.32;;
38693;SDS011;24447;43.460;25.744;2023-09-30T05:35:57;12.20;;;4.93;;
38693;SDS011;24447;43.460;25.744;2023-09-30T05:38:24;13.07;;;4.55;;
38693;SDS011;24447;43.460;25.744;2023-09-30T05:40:51;12.90;;;4.20;;
38693;SDS011;24447;43.460;25.744;2023-09-30T05:43:17;11.93;;;5.03;;
38693;SDS011;24447;43.460;25.744;2023-09-30T05:45:44;13.85;;;6.35;;
38693;SDS011;24447;43.460;25.744;2023-09-30T05:48:15;10.32;;;4.82;;
38693;SDS011;24447;43.460;25.744;2023-09-30T05:50:41;11.45;;;4.97;;
38693;SDS011;24447;43.460;25.744;2023-09-30T05:53:08;13.52;;;5.43;;
38693;SDS011;24447;43.460;25.744;2023-09-30T05:55:35;15.13;;;4.80;;
38693;SDS011;24447;43.460;25.744;2023-09-30T05:58:01;12.52;;;5.35;;
38693;SDS011;24447;43.460;25.744;2023-09-30T06:00:28;12.88;;;4.53;;
38693;SDS011;24447;43.460;25.744;2023-09-30T06:02:55;8.70;;;4.85;;
38693;SDS011;24447;43.460;25.744;2023-09-30T06:05:24;12.85;;;5.63;;
38693;SDS011;24447;43.460;25.744;2023-09-30T06:07:55;15.52;;;5.53;;
38693;SDS011;24447;43.460;25.744;2023-09-30T06:10:22;12.75;;;4.80;;
38693;SDS011;24447;43.460;25.744;2023-09-30T06:12:48;7.97;;;4.18;;
38693;SDS011;24447;43.460;25.744;2023-09-30T06:15:20;9.00;;;3.70;;
38693;SDS011;24447;43.460;25.744;2023-09-30T06:17:54;8.57;;;3.90;;
38693;SDS011;24447;43.460;25.744;2023-09-30T06:20:21;8.50;;;4.03;;
38693;SDS011;24447;43.460;25.744;2023-09-30T06:22:55;9.23;;;3.80;;
38693;SDS011;24447;43.460;25.744;2023-09-30T06:25:22;10.85;;;5.10;;
38693;SDS011;24447;43.460;25.744;2023-09-30T06:27:52;12.73;;;4.55;;
38693;SDS011;24447;43.460;25.744;2023-09-30T06:30:22;15.98;;;4.63;;
38693;SDS011;24447;43.460;25.744;2023-09-30T06:32:54;6.68;;;3.53;;
38693;SDS011;24447;43.460;25.744;2023-09-30T06:35:24;9.87;;;3.33;;
38693;SDS011;24447;43.460;25.744;2023-09-30T06:37:51;6.85;;;3.53;;
38693;SDS011;24447;43.460;25.744;2023-09-30T06:40:17;10.65;;;4.35;;
38693;SDS011;24447;43.460;25.744;2023-09-30T06:42:44;4.32;;;2.70;;
38693;SDS011;24447;43.460;25.744;2023-09-30T06:45:10;9.07;;;4.72;;
38693;SDS011;24447;43.460;25.744;2023-09-30T06:47:38;27.95;;;4.75;;
38693;SDS011;24447;43.460;25.744;2023-09-30T06:50:12;10.15;;;4.40;;
38693;SDS011;24447;43.460;25.744;2023-09-30T06:52:42;18.05;;;4.88;;
38693;SDS011;24447;43.460;25.744;2023-09-30T06:55:10;9.75;;;3.90;;
38693;SDS011;24447;43.460;25.744;2023-09-30T06:57:41;7.75;;;4.10;;
38693;SDS011;24447;43.460;25.744;2023-09-30T07:00:08;8.75;;;4.28;;
38693;SDS011;24447;43.460;25.744;2023-09-30T07:02:36;12.20;;;4.73;;
38693;SDS011;24447;43.460;25.744;2023-09-30T07:05:10;17.95;;;4.72;;
38693;SDS011;24447;43.460;25.744;2023-09-30T07:07:37;9.18;;;4.78;;
38693;SDS011;24447;43.460;25.744;2023-09-30T07:10:05;11.40;;;5.45;;
38693;SDS011;24447;43.460;25.744;2023-09-30T07:12:31;12.82;;;5.82;;
38693;SDS011;24447;43.460;25.744;2023-09-30T07:15:03;10.13;;;4.97;;
38693;SDS011;24447;43.460;25.744;2023-09-30T07:17:30;13.10;;;5.65;;
38693;SDS011;24447;43.460;25.744;2023-09-30T07:19:57;13.85;;;5.18;;
38693;SDS011;24447;43.460;25.744;2023-09-30T07:22:24;9.55;;;4.45;;
38693;SDS011;24447;43.460;25.744;2023-09-30T07:24:50;16.20;;;5.78;;
38693;SDS011;24447;43.460;25.744;2023-09-30T07:27:17;8.68;;;4.55;;
38693;SDS011;24447;43.460;25.744;2023-09-30T07:29:43;11.35;;;4.97;;
38693;SDS011;24447;43.460;25.744;2023-09-30T07:32:09;21.83;;;6.25;;
38693;SDS011;24447;43.460;25.744;2023-09-30T07:34:35;22.85;;;5.70;;
38693;SDS011;24447;43.460;25.744;2023-09-30T07:37:01;8.80;;;4.38;;
38693;SDS011;24447;43.460;25.744;2023-09-30T07:39:28;16.23;;;5.65;;
38693;SDS011;24447;43.460;25.744;2023-09-30T07:41:55;12.52;;;5.25;;
38693;SDS011;24447;43.460;25.744;2023-09-30T07:44:21;10.93;;;6.22;;
38693;SDS011;24447;43.460;25.744;2023-09-30T07:46:47;12.27;;;4.75;;
38693;SDS011;24447;43.460;25.744;2023-09-30T07:49:13;12.52;;;4.40;;
38693;SDS011;24447;43.460;25.744;2023-09-30T07:51:39;8.82;;;4.75;;
38693;SDS011;24447;43.460;25.744;2023-09-30T07:54:05;15.13;;;5.13;;
38693;SDS011;24447;43.460;25.744;2023-09-30T07:56:31;9.48;;;4.45;;
38693;SDS011;24447;43.460;25.744;2023-09-30T07:58:57;8.63;;;4.07;;
38693;SDS011;24447;43.460;25.744;2023-09-30T08:01:23;11.10;;;4.05;;
38693;SDS011;24447;43.460;25.744;2023-09-30T08:03:49;8.38;;;4.97;;
38693;SDS011;24447;43.460;25.744;2023-09-30T08:06:15;10.02;;;4.50;;
38693;SDS011;24447;43.460;25.744;2023-09-30T08:08:41;13.38;;;4.80;;
38693;SDS011;24447;43.460;25.744;2023-09-30T08:11:07;13.02;;;5.30;;
38693;SDS011;24447;43.460;25.744;2023-09-30T08:13:33;6.85;;;3.47;;
38693;SDS011;24447;43.460;25.744;2023-09-30T08:15:59;10.82;;;4.60;;
38693;SDS011;24447;43.460;25.744;2023-09-30T08:18:25;9.52;;;4.38;;
38693;SDS011;24447;43.460;25.744;2023-09-30T08:20:51;7.10;;;3.72;;
38693;SDS011;24447;43.460;25.744;2023-09-30T08:23:17;8.90;;;4.63;;
38693;SDS011;24447;43.460;25.744;2023-09-30T08:25:43;13.65;;;4.18;;
38693;SDS011;24447;43.460;25.744;2023-09-30T08:28:09;8.57;;;3.35;;
38693;SDS011;24447;43.460;25.744;2023-09-30T08:30:35;14.50;;;4.53;;
38693;SDS011;24447;43.460;25.744;2023-09-30T08:33:02;11.02;;;4.75;;
38693;SDS011;24447;43.460;25.744;2023-09-30T08:35:36;6.20;;;3.75;;
38693;SDS011;24447;43.460;25.744;2023-09-30T08:38:03;7.97;;;3.45;;
38693;SDS011;24447;43.460;25.744;2023-09-30T08:40:29;9.90;;;3.05;;
38693;SDS011;24447;43.460;25.744;2023-09-30T08:42:55;6.63;;;3.83;;
38693;SDS011;24447;43.460;25.744;2023-09-30T08:45:21;9.80;;;4.53;;
38693;SDS011;24447;43.460;25.744;2023-09-30T08:47:47;6.25;;;3.88;;
38693;SDS011;24447;43.460;25.744;2023-09-30T08:50:15;6.00;;;3.42;;
38693;SDS011;24447;43.460;25.744;2023-09-30T08:52:43;6.90;;;3.55;;
38693;SDS011;24447;43.460;25.744;2023-09-30T08:55:10;8.63;;;3.78;;
38693;SDS011;24447;43.460;25.744;2023-09-30T08:57:37;8.18;;;3.80;;
38693;SDS011;24447;43.460;25.744;2023-09-30T09:00:06;13.32;;;4.88;;
38693;SDS011;24447;43.460;25.744;2023-09-30T09:02:36;8.48;;;3.78;;
38693;SDS011;24447;43.460;25.744;2023-09-30T09:05:03;10.73;;;3.45;;
38693;SDS011;24447;43.460;25.744;2023-09-30T09:07:29;14.07;;;3.75;;
38693;SDS011;24447;43.460;25.744;2023-09-30T09:10:12;6.78;;;3.80;;
38693;SDS011;24447;43.460;25.744;2023-09-30T09:12:39;12.23;;;3.67;;
38693;SDS011;24447;43.460;25.744;2023-09-30T09:15:06;6.28;;;3.50;;
38693;SDS011;24447;43.460;25.744;2023-09-30T09:17:40;9.55;;;4.43;;
38693;SDS011;24447;43.460;25.744;2023-09-30T09:20:07;17.55;;;3.25;;
38693;SDS011;24447;43.460;25.744;2023-09-30T09:25:09;10.18;;;4.28;;
38693;SDS011;24447;43.460;25.744;2023-09-30T09:27:36;9.73;;;3.55;;
38693;SDS011;24447;43.460;25.744;2023-09-30T09:30:45;6.78;;;3.83;;
38693;SDS011;24447;43.460;25.744;2023-09-30T09:35:20;12.20;;;3.85;;
38693;SDS011;24447;43.460;25.744;2023-09-30T09:40:30;7.63;;;3.58;;
38693;SDS011;24447;43.460;25.744;2023-09-30T09:42:57;7.93;;;3.85;;
38693;SDS011;24447;43.460;25.744;2023-09-30T09:45:27;6.13;;;3.38;;
38693;SDS011;24447;43.460;25.744;2023-09-30T09:47:54;6.55;;;3.35;;
38693;SDS011;24447;43.460;25.744;2023-09-30T09:50:21;7.32;;;3.20;;
38693;SDS011;24447;43.460;25.744;2023-09-30T09:52:49;4.32;;;3.03;;
38693;SDS011;24447;43.460;25.744;2023-09-30T09:55:20;7.55;;;3.20;;
38693;SDS011;24447;43.460;25.744;2023-09-30T09:57:47;13.00;;;3.80;;
38693;SDS011;24447;43.460;25.744;2023-09-30T10:00:18;7.80;;;3.20;;
38693;SDS011;24447;43.460;25.744;2023-09-30T10:02:45;9.98;;;3.20;;
38693;SDS011;24447;43.460;25.744;2023-09-30T10:05:12;9.63;;;3.03;;
38693;SDS011;24447;43.460;25.744;2023-09-30T10:07:47;2.50;;;2.30;;
38693;SDS011;24447;43.460;25.744;2023-09-30T10:10:18;5.72;;;2.63;;
38693;SDS011;24447;43.460;25.744;2023-09-30T10:12:45;2.50;;;2.30;;
38693;SDS011;24447;43.460;25.744;2023-09-30T10:20:35;6.50;;;3.63;;
38693;SDS011;24447;43.460;25.744;2023-09-30T10:26:31;4.00;;;2.80;;
38693;SDS011;24447;43.460;25.744;2023-09-30T10:28:50;8.07;;;3.20;;
38693;SDS011;24447;43.460;25.744;2023-09-30T10:36:31;7.00;;;3.03;;
38693;SDS011;24447;43.460;25.744;2023-09-30T10:38:58;9.32;;;3.83;;
38693;SDS011;24447;43.460;25.744;2023-09-30T10:46:54;11.13;;;3.88;;
38693;SDS011;24447;43.460;25.744;2023-09-30T10:51:53;4.55;;;2.92;;
38693;SDS011;24447;43.460;25.744;2023-09-30T10:54:25;5.03;;;2.85;;
38693;SDS011;24447;43.460;25.744;2023-09-30T10:56:55;5.40;;;2.85;;
38693;SDS011;24447;43.460;25.744;2023-09-30T10:59:30;11.93;;;3.10;;
38693;SDS011;24447;43.460;25.744;2023-09-30T11:01:57;6.10;;;2.55;;
38693;SDS011;24447;43.460;25.744;2023-09-30T11:04:24;5.95;;;2.33;;
38693;SDS011;24447;43.460;25.744;2023-09-30T11:06:52;8.75;;;3.47;;
38693;SDS011;24447;43.460;25.744;2023-09-30T11:09:19;3.42;;;2.35;;
38693;SDS011;24447;43.460;25.744;2023-09-30T11:11:50;2.85;;;2.22;;
38693;SDS011;24447;43.460;25.744;2023-09-30T11:14:18;6.53;;;3.15;;
38693;SDS011;24447;43.460;25.744;2023-09-30T11:16:45;4.18;;;2.00;;
38693;SDS011;24447;43.460;25.744;2023-09-30T11:19:11;3.60;;;2.17;;
38693;SDS011;24447;43.460;25.744;2023-09-30T11:21:41;4.10;;;3.00;;
38693;SDS011;24447;43.460;25.744;2023-09-30T11:24:09;7.05;;;2.75;;
38693;SDS011;24447;43.460;25.744;2023-09-30T11:26:35;5.07;;;2.55;;
38693;SDS011;24447;43.460;25.744;2023-09-30T11:29:05;3.80;;;2.08;;
38693;SDS011;24447;43.460;25.744;2023-09-30T11:31:44;5.32;;;2.97;;
38693;SDS011;24447;43.460;25.744;2023-09-30T11:34:12;4.07;;;2.47;;
38693;SDS011;24447;43.460;25.744;2023-09-30T11:36:39;6.65;;;2.97;;
38693;SDS011;24447;43.460;25.744;2023-09-30T11:39:09;3.70;;;2.38;;
38693;SDS011;24447;43.460;25.744;2023-09-30T11:41:36;7.25;;;3.10;;
38693;SDS011;24447;43.460;25.744;2023-09-30T11:44:07;4.43;;;2.33;;
38693;SDS011;24447;43.460;25.744;2023-09-30T11:49:29;7.27;;;2.83;;
38693;SDS011;24447;43.460;25.744;2023-09-30T11:54:35;5.35;;;2.30;;
38693;SDS011;24447;43.460;25.744;2023-09-30T11:57:15;7.88;;;3.80;;
38693;SDS011;24447;43.460;25.744;2023-09-30T11:59:42;4.72;;;2.65;;
38693;SDS011;24447;43.460;25.744;2023-09-30T12:02:10;6.20;;;2.50;;
38693;SDS011;24447;43.460;25.744;2023-09-30T12:07:06;3.40;;;2.03;;
38693;SDS011;24447;43.460;25.744;2023-09-30T12:09:33;6.18;;;2.45;;
38693;SDS011;24447;43.460;25.744;2023-09-30T12:12:02;7.28;;;2.83;;
38693;SDS011;24447;43.460;25.744;2023-09-30T12:14:28;6.05;;;3.38;;
38693;SDS011;24447;43.460;25.744;2023-09-30T12:16:55;8.07;;;3.28;;
38693;SDS011;24447;43.460;25.744;2023-09-30T12:19:21;6.57;;;2.88;;
38693;SDS011;24447;43.460;25.744;2023-09-30T12:21:47;8.30;;;2.63;;
38693;SDS011;24447;43.460;25.744;2023-09-30T12:24:13;5.90;;;2.53;;
38693;SDS011;24447;43.460;25.744;2023-09-30T12:26:47;5.90;;;2.45;;
38693;SDS011;24447;43.460;25.744;2023-09-30T12:29:17;4.82;;;2.65;;
38693;SDS011;24447;43.460;25.744;2023-09-30T12:31:44;3.53;;;2.35;;
38693;SDS011;24447;43.460;25.744;2023-09-30T12:34:10;5.07;;;2.10;;
38693;SDS011;24447;43.460;25.744;2023-09-30T12:36:37;6.00;;;2.70;;
38693;SDS011;24447;43.460;25.744;2023-09-30T12:39:04;4.32;;;2.60;;
38693;SDS011;24447;43.460;25.744;2023-09-30T12:41:41;5.97;;;2.95;;
38693;SDS011;24447;43.460;25.744;2023-09-30T12:44:08;5.32;;;3.20;;
38693;SDS011;24447;43.460;25.744;2023-09-30T12:46:36;4.63;;;2.35;;
38693;SDS011;24447;43.460;25.744;2023-09-30T12:49:02;7.93;;;4.03;;
38693;SDS011;24447;43.460;25.744;2023-09-30T12:51:29;2.33;;;1.98;;
38693;SDS011;24447;43.460;25.744;2023-09-30T12:53:55;4.43;;;2.72;;
38693;SDS011;24447;43.460;25.744;2023-09-30T12:56:22;5.22;;;2.08;;
38693;SDS011;24447;43.460;25.744;2023-09-30T12:58:49;7.35;;;2.35;;
38693;SDS011;24447;43.460;25.744;2023-09-30T13:01:15;3.35;;;2.08;;
38693;SDS011;24447;43.460;25.744;2023-09-30T13:03:43;7.70;;;2.45;;
38693;SDS011;24447;43.460;25.744;2023-09-30T13:06:10;6.13;;;2.58;;
38693;SDS011;24447;43.460;25.744;2023-09-30T13:08:36;7.35;;;2.58;;
38693;SDS011;24447;43.460;25.744;2023-09-30T13:11:02;3.22;;;2.15;;
38693;SDS011;24447;43.460;25.744;2023-09-30T13:13:32;4.65;;;2.25;;
38693;SDS011;24447;43.460;25.744;2023-09-30T13:15:58;2.22;;;1.98;;
38693;SDS011;24447;43.460;25.744;2023-09-30T13:18:25;4.15;;;2.80;;
38693;SDS011;24447;43.460;25.744;2023-09-30T13:20:51;4.03;;;2.53;;
38693;SDS011;24447;43.460;25.744;2023-09-30T13:23:17;4.68;;;2.40;;
38693;SDS011;24447;43.460;25.744;2023-09-30T13:25:44;5.55;;;1.90;;
38693;SDS011;24447;43.460;25.744;2023-09-30T13:28:10;3.13;;;2.15;;
38693;SDS011;24447;43.460;25.744;2023-09-30T13:30:36;4.90;;;2.38;;
38693;SDS011;24447;43.460;25.744;2023-09-30T13:33:03;4.57;;;2.67;;
38693;SDS011;24447;43.460;25.744;2023-09-30T13:35:29;6.13;;;2.95;;
38693;SDS011;24447;43.460;25.744;2023-09-30T13:37:55;5.82;;;3.20;;
38693;SDS011;24447;43.460;25.744;2023-09-30T13:40:21;4.10;;;2.30;;
38693;SDS011;24447;43.460;25.744;2023-09-30T13:42:47;3.60;;;2.35;;
38693;SDS011;24447;43.460;25.744;2023-09-30T13:45:13;2.83;;;1.85;;
38693;SDS011;24447;43.460;25.744;2023-09-30T13:47:39;4.22;;;2.40;;
38693;SDS011;24447;43.460;25.744;2023-09-30T13:50:05;4.28;;;2.63;;
38693;SDS011;24447;43.460;25.744;2023-09-30T13:52:35;4.65;;;2.72;;
38693;SDS011;24447;43.460;25.744;2023-09-30T13:55:01;4.60;;;2.63;;
38693;SDS011;24447;43.460;25.744;2023-09-30T13:57:29;6.32;;;2.50;;
38693;SDS011;24447;43.460;25.744;2023-09-30T13:59:56;7.53;;;2.97;;
38693;SDS011;24447;43.460;25.744;2023-09-30T14:02:22;5.75;;;2.95;;
38693;SDS011;24447;43.460;25.744;2023-09-30T14:04:48;14.68;;;3.92;;
38693;SDS011;24447;43.460;25.744;2023-09-30T14:07:14;15.15;;;3.42;;
38693;SDS011;24447;43.460;25.744;2023-09-30T14:09:43;10.48;;;3.03;;
38693;SDS011;24447;43.460;25.744;2023-09-30T14:12:09;12.90;;;3.03;;
38693;SDS011;24447;43.460;25.744;2023-09-30T14:14:35;11.60;;;3.05;;
38693;SDS011;24447;43.460;25.744;2023-09-30T14:17:01;6.20;;;2.63;;
38693;SDS011;24447;43.460;25.744;2023-09-30T14:19:35;14.20;;;3.13;;
38693;SDS011;24447;43.460;25.744;2023-09-30T14:22:01;7.03;;;3.28;;
38693;SDS011;24447;43.460;25.744;2023-09-30T14:24:27;4.35;;;2.35;;
38693;SDS011;24447;43.460;25.744;2023-09-30T14:26:53;5.30;;;2.55;;
38693;SDS011;24447;43.460;25.744;2023-09-30T14:29:20;12.55;;;3.83;;
38693;SDS011;24447;43.460;25.744;2023-09-30T14:31:46;4.95;;;2.40;;
38693;SDS011;24447;43.460;25.744;2023-09-30T14:34:12;8.15;;;3.88;;
38693;SDS011;24447;43.460;25.744;2023-09-30T14:36:40;6.50;;;3.70;;
38693;SDS011;24447;43.460;25.744;2023-09-30T14:39:06;6.18;;;3.22;;
38693;SDS011;24447;43.460;25.744;2023-09-30T14:41:32;11.30;;;3.22;;
38693;SDS011;24447;43.460;25.744;2023-09-30T14:43:59;17.92;;;3.72;;
38693;SDS011;24447;43.460;25.744;2023-09-30T14:46:26;5.63;;;2.72;;
38693;SDS011;24447;43.460;25.744;2023-09-30T14:48:52;5.32;;;2.83;;
38693;SDS011;24447;43.460;25.744;2023-09-30T14:51:22;5.53;;;2.42;;
38693;SDS011;24447;43.460;25.744;2023-09-30T14:53:48;6.60;;;3.00;;
38693;SDS011;24447;43.460;25.744;2023-09-30T14:56:18;4.47;;;2.65;;
38693;SDS011;24447;43.460;25.744;2023-09-30T14:58:44;8.40;;;2.85;;
38693;SDS011;24447;43.460;25.744;2023-09-30T15:01:11;5.75;;;2.60;;
38693;SDS011;24447;43.460;25.744;2023-09-30T15:03:38;4.25;;;2.55;;
38693;SDS011;24447;43.460;25.744;2023-09-30T15:06:05;6.32;;;2.47;;